sensor_id;sensor_type;location;lat;lon;timestamp;P1;durP1;ratioP1;P2;durP2;ratioP2
6561;SDS011;3314;50.890;4.722;2023-06-10T00:01:48;11.9;;;5.3;;
6561;SDS011;3314;50.890;4.722;2023-06-10T00:03:50;13.1;;;5.6;;
6561;SDS011;3314;50.890;4.722;2023-06-10T00:05:50;14.3;;;5.4;;
6561;SDS011;3314;50.890;4.722;2023-06-10T00:07:50;15.7;;;5.0;;
6561;SDS011;3314;50.890;4.722;2023-06-10T00:09:50;12.4;;;5.4;;
6561;SDS011;3314;50.890;4.722;2023-06-10T00:11:50;13.8;;;5.7;;
6561;SDS011;3314;50.890;4.722;2023-06-10T00:13:50;14.9;;;5.4;;
6561;SDS011;3314;50.890;4.722;2023-06-10T00:15:50;13.9;;;5.2;;
6561;SDS011;3314;50.890;4.722;2023-06-10T00:17:49;13.9;;;5.3;;
6561;SDS011;3314;50.890;4.722;2023-06-10T00:19:51;13.4;;;5.4;;
6561;SDS011;3314;50.890;4.722;2023-06-10T00:22:01;12.9;;;5.0;;
6561;SDS011;3314;50.890;4.722;2023-06-10T00:23:50;12.9;;;4.8;;
6561;SDS011;3314;50.890;4.722;2023-06-10T00:25:49;12.6;;;4.9;;
6561;SDS011;3314;50.890;4.722;2023-06-10T00:27:52;12.3;;;5.1;;
6561;SDS011;3314;50.890;4.722;2023-06-10T00:30:22;13.0;;;5.4;;
6561;SDS011;3314;50.890;4.722;2023-06-10T00:31:46;13.7;;;6.1;;
6561;SDS011;3314;50.890;4.722;2023-06-10T00:33:46;12.0;;;5.3;;
6561;SDS011;3314;50.890;4.722;2023-06-10T00:35:45;13.3;;;5.0;;
6561;SDS011;3314;50.890;4.722;2023-06-10T00:37:45;14.7;;;5.8;;
6561;SDS011;3314;50.890;4.722;2023-06-10T00:39:45;12.4;;;5.4;;
6561;SDS011;3314;50.890;4.722;2023-06-10T00:41:45;14.4;;;5.5;;
6561;SDS011;3314;50.890;4.722;2023-06-10T00:43:45;13.2;;;5.4;;
6561;SDS011;3314;50.890;4.722;2023-06-10T00:45:44;14.9;;;6.2;;
6561;SDS011;3314;50.890;4.722;2023-06-10T00:48:03;16.0;;;5.5;;
6561;SDS011;3314;50.890;4.722;2023-06-10T00:49:51;14.1;;;5.2;;
6561;SDS011;3314;50.890;4.722;2023-06-10T00:51:51;13.9;;;5.2;;
6561;SDS011;3314;50.890;4.722;2023-06-10T00:53:51;13.1;;;5.3;;
6561;SDS011;3314;50.890;4.722;2023-06-10T00:55:51;14.3;;;6.1;;
6561;SDS011;3314;50.890;4.722;2023-06-10T00:57:54;13.2;;;5.1;;
6561;SDS011;3314;50.890;4.722;2023-06-10T00:59:41;13.9;;;5.7;;
6561;SDS011;3314;50.890;4.722;2023-06-10T01:01:43;13.5;;;5.4;;
6561;SDS011;3314;50.890;4.722;2023-06-10T01:04:08;16.0;;;6.2;;
6561;SDS011;3314;50.890;4.722;2023-06-10T01:05:43;19.5;;;5.3;;
6561;SDS011;3314;50.890;4.722;2023-06-10T01:09:53;15.4;;;5.4;;
6561;SDS011;3314;50.890;4.722;2023-06-10T01:11:43;12.3;;;5.3;;
6561;SDS011;3314;50.890;4.722;2023-06-10T01:13:51;18.7;;;5.6;;
6561;SDS011;3314;50.890;4.722;2023-06-10T01:15:41;15.2;;;6.1;;
6561;SDS011;3314;50.890;4.722;2023-06-10T01:25:44;15.5;;;6.4;;
6561;SDS011;3314;50.890;4.722;2023-06-10T01:27:45;13.7;;;5.6;;
6561;SDS011;3314;50.890;4.722;2023-06-10T01:29:48;14.7;;;5.7;;
6561;SDS011;3314;50.890;4.722;2023-06-10T01:31:50;14.5;;;5.3;;
6561;SDS011;3314;50.890;4.722;2023-06-10T01:33:41;12.7;;;6.0;;
6561;SDS011;3314;50.890;4.722;2023-06-10T01:35:42;14.7;;;5.6;;
6561;SDS011;3314;50.890;4.722;2023-06-10T01:37:43;15.7;;;5.6;;
6561;SDS011;3314;50.890;4.722;2023-06-10T01:39:46;12.3;;;5.8;;
6561;SDS011;3314;50.890;4.722;2023-06-10T01:41:48;14.1;;;5.7;;
6561;SDS011;3314;50.890;4.722;2023-06-10T01:43:48;12.1;;;5.4;;
6561;SDS011;3314;50.890;4.722;2023-06-10T01:45:48;15.1;;;5.4;;
6561;SDS011;3314;50.890;4.722;2023-06-10T01:47:47;13.3;;;5.7;;
6561;SDS011;3314;50.890;4.722;2023-06-10T01:49:47;14.1;;;5.9;;
6561;SDS011;3314;50.890;4.722;2023-06-10T01:51:46;15.0;;;5.7;;
6561;SDS011;3314;50.890;4.722;2023-06-10T01:53:46;14.4;;;5.9;;
6561;SDS011;3314;50.890;4.722;2023-06-10T01:55:46;17.4;;;6.2;;
6561;SDS011;3314;50.890;4.722;2023-06-10T01:57:46;11.9;;;5.2;;
6561;SDS011;3314;50.890;4.722;2023-06-10T01:59:46;14.8;;;6.9;;
6561;SDS011;3314;50.890;4.722;2023-06-10T02:01:46;13.0;;;6.0;;
6561;SDS011;3314;50.890;4.722;2023-06-10T02:03:45;13.4;;;5.6;;
6561;SDS011;3314;50.890;4.722;2023-06-10T02:05:48;13.4;;;5.6;;
6561;SDS011;3314;50.890;4.722;2023-06-10T02:07:48;13.6;;;5.6;;
6561;SDS011;3314;50.890;4.722;2023-06-10T02:09:47;17.5;;;6.6;;
6561;SDS011;3314;50.890;4.722;2023-06-10T02:11:47;18.3;;;6.4;;
6561;SDS011;3314;50.890;4.722;2023-06-10T02:13:47;14.9;;;6.7;;
6561;SDS011;3314;50.890;4.722;2023-06-10T02:15:46;16.9;;;6.1;;
6561;SDS011;3314;50.890;4.722;2023-06-10T02:17:46;14.5;;;6.4;;
6561;SDS011;3314;50.890;4.722;2023-06-10T02:19:53;16.4;;;6.6;;
6561;SDS011;3314;50.890;4.722;2023-06-10T02:21:40;14.4;;;6.8;;
6561;SDS011;3314;50.890;4.722;2023-06-10T02:23:40;14.8;;;6.2;;
6561;SDS011;3314;50.890;4.722;2023-06-10T02:25:40;13.7;;;6.5;;
6561;SDS011;3314;50.890;4.722;2023-06-10T02:27:40;14.4;;;6.8;;
6561;SDS011;3314;50.890;4.722;2023-06-10T02:29:41;13.2;;;6.2;;
6561;SDS011;3314;50.890;4.722;2023-06-10T02:31:41;15.1;;;6.0;;
6561;SDS011;3314;50.890;4.722;2023-06-10T02:33:42;16.0;;;6.4;;
6561;SDS011;3314;50.890;4.722;2023-06-10T02:35:42;15.7;;;6.4;;
6561;SDS011;3314;50.890;4.722;2023-06-10T02:37:41;14.5;;;6.4;;
6561;SDS011;3314;50.890;4.722;2023-06-10T02:39:41;15.5;;;6.2;;
6561;SDS011;3314;50.890;4.722;2023-06-10T02:41:40;15.3;;;6.9;;
6561;SDS011;3314;50.890;4.722;2023-06-10T02:43:40;14.3;;;6.3;;
6561;SDS011;3314;50.890;4.722;2023-06-10T02:45:40;15.5;;;6.4;;
6561;SDS011;3314;50.890;4.722;2023-06-10T02:47:41;12.7;;;6.1;;
6561;SDS011;3314;50.890;4.722;2023-06-10T02:49:41;16.3;;;7.1;;
6561;SDS011;3314;50.890;4.722;2023-06-10T02:51:40;15.1;;;6.7;;
6561;SDS011;3314;50.890;4.722;2023-06-10T02:53:40;16.4;;;7.6;;
6561;SDS011;3314;50.890;4.722;2023-06-10T02:55:40;16.4;;;7.8;;
6561;SDS011;3314;50.890;4.722;2023-06-10T02:57:40;17.6;;;7.0;;
6561;SDS011;3314;50.890;4.722;2023-06-10T02:59:40;14.9;;;7.0;;
6561;SDS011;3314;50.890;4.722;2023-06-10T03:01:41;12.0;;;6.0;;
6561;SDS011;3314;50.890;4.722;2023-06-10T03:03:42;15.7;;;6.8;;
6561;SDS011;3314;50.890;4.722;2023-06-10T03:05:42;16.5;;;7.0;;
6561;SDS011;3314;50.890;4.722;2023-06-10T03:07:42;15.9;;;7.4;;
6561;SDS011;3314;50.890;4.722;2023-06-10T03:09:41;17.6;;;7.6;;
6561;SDS011;3314;50.890;4.722;2023-06-10T03:11:41;15.7;;;6.7;;
6561;SDS011;3314;50.890;4.722;2023-06-10T03:13:41;14.7;;;7.1;;
6561;SDS011;3314;50.890;4.722;2023-06-10T03:15:41;14.2;;;6.8;;
6561;SDS011;3314;50.890;4.722;2023-06-10T03:17:40;17.0;;;7.0;;
6561;SDS011;3314;50.890;4.722;2023-06-10T03:19:40;14.4;;;7.1;;
6561;SDS011;3314;50.890;4.722;2023-06-10T03:21:43;15.2;;;6.8;;
6561;SDS011;3314;50.890;4.722;2023-06-10T03:23:43;13.8;;;6.5;;
6561;SDS011;3314;50.890;4.722;2023-06-10T03:25:43;14.3;;;6.5;;
6561;SDS011;3314;50.890;4.722;2023-06-10T03:27:42;16.3;;;7.0;;
6561;SDS011;3314;50.890;4.722;2023-06-10T03:29:42;19.8;;;6.9;;
6561;SDS011;3314;50.890;4.722;2023-06-10T03:31:42;20.4;;;7.3;;
6561;SDS011;3314;50.890;4.722;2023-06-10T03:33:41;13.4;;;7.3;;
6561;SDS011;3314;50.890;4.722;2023-06-10T03:35:41;13.8;;;7.1;;
6561;SDS011;3314;50.890;4.722;2023-06-10T03:37:41;15.7;;;7.5;;
6561;SDS011;3314;50.890;4.722;2023-06-10T03:39:40;13.2;;;6.6;;
6561;SDS011;3314;50.890;4.722;2023-06-10T03:41:40;17.4;;;7.5;;
6561;SDS011;3314;50.890;4.722;2023-06-10T03:43:41;19.2;;;7.4;;
6561;SDS011;3314;50.890;4.722;2023-06-10T03:45:41;14.0;;;6.3;;
6561;SDS011;3314;50.890;4.722;2023-06-10T03:47:41;14.5;;;6.7;;
6561;SDS011;3314;50.890;4.722;2023-06-10T03:49:41;13.2;;;6.8;;
6561;SDS011;3314;50.890;4.722;2023-06-10T03:51:41;16.5;;;7.7;;
6561;SDS011;3314;50.890;4.722;2023-06-10T03:53:40;23.5;;;7.4;;
6561;SDS011;3314;50.890;4.722;2023-06-10T03:55:41;23.0;;;8.2;;
6561;SDS011;3314;50.890;4.722;2023-06-10T03:57:41;20.2;;;6.7;;
6561;SDS011;3314;50.890;4.722;2023-06-10T03:59:41;14.7;;;6.8;;
6561;SDS011;3314;50.890;4.722;2023-06-10T04:01:41;15.2;;;7.9;;
6561;SDS011;3314;50.890;4.722;2023-06-10T04:03:42;13.8;;;6.3;;
6561;SDS011;3314;50.890;4.722;2023-06-10T04:05:42;15.2;;;6.9;;
6561;SDS011;3314;50.890;4.722;2023-06-10T04:07:43;15.2;;;7.4;;
6561;SDS011;3314;50.890;4.722;2023-06-10T04:09:43;15.7;;;6.8;;
6561;SDS011;3314;50.890;4.722;2023-06-10T04:11:42;15.3;;;6.8;;
6561;SDS011;3314;50.890;4.722;2023-06-10T04:13:42;15.6;;;7.3;;
6561;SDS011;3314;50.890;4.722;2023-06-10T04:15:41;16.3;;;7.6;;
6561;SDS011;3314;50.890;4.722;2023-06-10T04:17:41;14.2;;;7.1;;
6561;SDS011;3314;50.890;4.722;2023-06-10T04:19:41;14.0;;;7.0;;
6561;SDS011;3314;50.890;4.722;2023-06-10T04:21:40;16.8;;;7.1;;
6561;SDS011;3314;50.890;4.722;2023-06-10T04:23:40;16.4;;;7.1;;
6561;SDS011;3314;50.890;4.722;2023-06-10T04:25:40;12.5;;;6.0;;
6561;SDS011;3314;50.890;4.722;2023-06-10T04:27:39;14.0;;;7.5;;
6561;SDS011;3314;50.890;4.722;2023-06-10T04:29:39;13.9;;;6.5;;
6561;SDS011;3314;50.890;4.722;2023-06-10T04:31:39;15.9;;;7.6;;
6561;SDS011;3314;50.890;4.722;2023-06-10T04:33:39;16.2;;;6.7;;
6561;SDS011;3314;50.890;4.722;2023-06-10T04:35:38;17.8;;;7.4;;
6561;SDS011;3314;50.890;4.722;2023-06-10T04:37:38;15.7;;;6.4;;
6561;SDS011;3314;50.890;4.722;2023-06-10T04:39:37;18.6;;;7.7;;
6561;SDS011;3314;50.890;4.722;2023-06-10T04:41:37;17.7;;;8.3;;
6561;SDS011;3314;50.890;4.722;2023-06-10T04:43:38;15.4;;;6.8;;
6561;SDS011;3314;50.890;4.722;2023-06-10T04:45:37;17.3;;;7.3;;
6561;SDS011;3314;50.890;4.722;2023-06-10T04:47:37;16.7;;;7.1;;
6561;SDS011;3314;50.890;4.722;2023-06-10T04:49:36;14.8;;;7.0;;
6561;SDS011;3314;50.890;4.722;2023-06-10T04:51:36;15.1;;;6.9;;
6561;SDS011;3314;50.890;4.722;2023-06-10T04:53:36;17.2;;;7.9;;
6561;SDS011;3314;50.890;4.722;2023-06-10T04:55:36;17.0;;;7.4;;
6561;SDS011;3314;50.890;4.722;2023-06-10T04:57:36;17.6;;;7.1;;
6561;SDS011;3314;50.890;4.722;2023-06-10T04:59:37;14.9;;;7.6;;
6561;SDS011;3314;50.890;4.722;2023-06-10T05:01:37;16.7;;;7.7;;
6561;SDS011;3314;50.890;4.722;2023-06-10T05:03:37;15.7;;;7.1;;
6561;SDS011;3314;50.890;4.722;2023-06-10T05:05:36;15.7;;;7.5;;
6561;SDS011;3314;50.890;4.722;2023-06-10T05:07:36;21.7;;;7.4;;
6561;SDS011;3314;50.890;4.722;2023-06-10T05:09:36;13.7;;;6.7;;
6561;SDS011;3314;50.890;4.722;2023-06-10T05:11:35;15.1;;;7.9;;
6561;SDS011;3314;50.890;4.722;2023-06-10T05:13:35;19.6;;;7.5;;
6561;SDS011;3314;50.890;4.722;2023-06-10T05:15:35;15.2;;;7.8;;
6561;SDS011;3314;50.890;4.722;2023-06-10T05:17:35;15.4;;;7.9;;
6561;SDS011;3314;50.890;4.722;2023-06-10T05:19:36;15.3;;;7.5;;
6561;SDS011;3314;50.890;4.722;2023-06-10T05:21:35;14.8;;;7.1;;
6561;SDS011;3314;50.890;4.722;2023-06-10T05:23:35;20.3;;;7.7;;
6561;SDS011;3314;50.890;4.722;2023-06-10T05:25:35;14.2;;;6.9;;
6561;SDS011;3314;50.890;4.722;2023-06-10T05:27:35;17.4;;;7.1;;
6561;SDS011;3314;50.890;4.722;2023-06-10T05:29:34;17.9;;;8.4;;
6561;SDS011;3314;50.890;4.722;2023-06-10T05:31:34;16.1;;;6.7;;
6561;SDS011;3314;50.890;4.722;2023-06-10T05:33:34;14.4;;;7.3;;
6561;SDS011;3314;50.890;4.722;2023-06-10T05:35:34;13.8;;;6.9;;
6561;SDS011;3314;50.890;4.722;2023-06-10T05:37:34;19.4;;;8.3;;
6561;SDS011;3314;50.890;4.722;2023-06-10T05:39:33;15.2;;;7.1;;
6561;SDS011;3314;50.890;4.722;2023-06-10T05:41:34;21.0;;;8.2;;
6561;SDS011;3314;50.890;4.722;2023-06-10T05:43:34;16.4;;;7.5;;
6561;SDS011;3314;50.890;4.722;2023-06-10T05:45:34;13.7;;;6.9;;
6561;SDS011;3314;50.890;4.722;2023-06-10T05:47:33;21.8;;;7.5;;
6561;SDS011;3314;50.890;4.722;2023-06-10T05:49:33;17.1;;;7.1;;
6561;SDS011;3314;50.890;4.722;2023-06-10T05:51:33;16.4;;;7.0;;
6561;SDS011;3314;50.890;4.722;2023-06-10T05:53:33;15.2;;;6.9;;
6561;SDS011;3314;50.890;4.722;2023-06-10T05:55:32;16.0;;;7.6;;
6561;SDS011;3314;50.890;4.722;2023-06-10T05:57:32;15.2;;;6.8;;
6561;SDS011;3314;50.890;4.722;2023-06-10T05:59:32;14.2;;;6.3;;
6561;SDS011;3314;50.890;4.722;2023-06-10T06:01:32;14.9;;;7.1;;
6561;SDS011;3314;50.890;4.722;2023-06-10T06:03:32;13.4;;;7.1;;
6561;SDS011;3314;50.890;4.722;2023-06-10T06:05:35;16.9;;;7.7;;
6561;SDS011;3314;50.890;4.722;2023-06-10T06:07:35;16.2;;;7.1;;
6561;SDS011;3314;50.890;4.722;2023-06-10T06:09:35;14.9;;;7.4;;
6561;SDS011;3314;50.890;4.722;2023-06-10T06:11:34;14.5;;;7.0;;
6561;SDS011;3314;50.890;4.722;2023-06-10T06:13:34;15.4;;;7.2;;
6561;SDS011;3314;50.890;4.722;2023-06-10T06:15:34;15.2;;;7.6;;
6561;SDS011;3314;50.890;4.722;2023-06-10T06:17:34;21.9;;;7.5;;
6561;SDS011;3314;50.890;4.722;2023-06-10T06:19:33;18.1;;;7.0;;
6561;SDS011;3314;50.890;4.722;2023-06-10T06:21:33;14.0;;;6.8;;
6561;SDS011;3314;50.890;4.722;2023-06-10T06:23:33;16.1;;;6.9;;
6561;SDS011;3314;50.890;4.722;2023-06-10T06:25:32;14.7;;;7.4;;
6561;SDS011;3314;50.890;4.722;2023-06-10T06:27:32;14.9;;;6.6;;
6561;SDS011;3314;50.890;4.722;2023-06-10T06:29:32;20.7;;;7.1;;
6561;SDS011;3314;50.890;4.722;2023-06-10T06:31:32;12.3;;;5.9;;
6561;SDS011;3314;50.890;4.722;2023-06-10T06:33:31;16.1;;;6.6;;
6561;SDS011;3314;50.890;4.722;2023-06-10T06:35:32;14.2;;;6.3;;
6561;SDS011;3314;50.890;4.722;2023-06-10T06:37:31;15.0;;;6.9;;
6561;SDS011;3314;50.890;4.722;2023-06-10T06:39:31;15.0;;;7.1;;
6561;SDS011;3314;50.890;4.722;2023-06-10T06:41:31;14.8;;;6.6;;
6561;SDS011;3314;50.890;4.722;2023-06-10T06:43:31;17.3;;;6.5;;
6561;SDS011;3314;50.890;4.722;2023-06-10T06:45:30;16.1;;;6.8;;
6561;SDS011;3314;50.890;4.722;2023-06-10T06:47:30;15.5;;;6.9;;
6561;SDS011;3314;50.890;4.722;2023-06-10T06:49:30;14.3;;;6.3;;
6561;SDS011;3314;50.890;4.722;2023-06-10T06:51:30;13.0;;;6.1;;
6561;SDS011;3314;50.890;4.722;2023-06-10T06:53:30;14.0;;;6.5;;
6561;SDS011;3314;50.890;4.722;2023-06-10T06:55:30;14.6;;;5.5;;
6561;SDS011;3314;50.890;4.722;2023-06-10T06:57:30;13.0;;;5.8;;
6561;SDS011;3314;50.890;4.722;2023-06-10T06:59:30;13.7;;;6.2;;
6561;SDS011;3314;50.890;4.722;2023-06-10T07:01:30;16.6;;;6.6;;
6561;SDS011;3314;50.890;4.722;2023-06-10T07:03:30;14.0;;;6.0;;
6561;SDS011;3314;50.890;4.722;2023-06-10T07:05:31;13.7;;;5.8;;
6561;SDS011;3314;50.890;4.722;2023-06-10T07:07:31;13.6;;;6.1;;
6561;SDS011;3314;50.890;4.722;2023-06-10T07:09:30;14.5;;;6.1;;
6561;SDS011;3314;50.890;4.722;2023-06-10T07:11:30;13.4;;;5.7;;
6561;SDS011;3314;50.890;4.722;2023-06-10T07:13:30;13.2;;;5.9;;
6561;SDS011;3314;50.890;4.722;2023-06-10T07:15:30;18.8;;;5.8;;
6561;SDS011;3314;50.890;4.722;2023-06-10T07:17:30;12.7;;;5.4;;
6561;SDS011;3314;50.890;4.722;2023-06-10T07:19:30;14.5;;;6.3;;
6561;SDS011;3314;50.890;4.722;2023-06-10T07:21:29;14.6;;;5.9;;
6561;SDS011;3314;50.890;4.722;2023-06-10T07:23:29;14.6;;;5.9;;
6561;SDS011;3314;50.890;4.722;2023-06-10T07:25:29;12.8;;;5.8;;
6561;SDS011;3314;50.890;4.722;2023-06-10T07:27:29;13.5;;;5.2;;
6561;SDS011;3314;50.890;4.722;2023-06-10T07:29:29;13.1;;;6.1;;
6561;SDS011;3314;50.890;4.722;2023-06-10T07:31:29;14.6;;;5.8;;
6561;SDS011;3314;50.890;4.722;2023-06-10T07:33:29;16.0;;;5.9;;
6561;SDS011;3314;50.890;4.722;2023-06-10T07:35:29;16.2;;;6.0;;
6561;SDS011;3314;50.890;4.722;2023-06-10T07:37:29;15.7;;;6.5;;
6561;SDS011;3314;50.890;4.722;2023-06-10T07:39:29;15.8;;;6.2;;
6561;SDS011;3314;50.890;4.722;2023-06-10T07:41:29;13.5;;;6.0;;
6561;SDS011;3314;50.890;4.722;2023-06-10T07:43:29;13.2;;;5.4;;
6561;SDS011;3314;50.890;4.722;2023-06-10T07:45:29;12.4;;;6.0;;
6561;SDS011;3314;50.890;4.722;2023-06-10T07:47:29;12.8;;;5.6;;
6561;SDS011;3314;50.890;4.722;2023-06-10T07:49:30;16.2;;;6.1;;
6561;SDS011;3314;50.890;4.722;2023-06-10T07:51:30;14.0;;;5.8;;
6561;SDS011;3314;50.890;4.722;2023-06-10T07:53:29;13.5;;;5.7;;
6561;SDS011;3314;50.890;4.722;2023-06-10T07:55:29;15.8;;;5.9;;
6561;SDS011;3314;50.890;4.722;2023-06-10T07:57:30;13.4;;;5.5;;
6561;SDS011;3314;50.890;4.722;2023-06-10T07:59:30;13.4;;;5.8;;
6561;SDS011;3314;50.890;4.722;2023-06-10T08:01:30;13.2;;;5.2;;
6561;SDS011;3314;50.890;4.722;2023-06-10T08:03:30;13.7;;;6.2;;
6561;SDS011;3314;50.890;4.722;2023-06-10T08:05:30;15.2;;;5.6;;
6561;SDS011;3314;50.890;4.722;2023-06-10T08:07:30;13.7;;;5.5;;
6561;SDS011;3314;50.890;4.722;2023-06-10T08:09:29;15.7;;;5.4;;
6561;SDS011;3314;50.890;4.722;2023-06-10T08:11:30;13.0;;;5.6;;
6561;SDS011;3314;50.890;4.722;2023-06-10T08:13:29;15.0;;;5.5;;
6561;SDS011;3314;50.890;4.722;2023-06-10T08:15:29;14.9;;;5.4;;
6561;SDS011;3314;50.890;4.722;2023-06-10T08:17:29;13.4;;;5.0;;
6561;SDS011;3314;50.890;4.722;2023-06-10T08:19:31;12.8;;;5.3;;
6561;SDS011;3314;50.890;4.722;2023-06-10T08:21:31;10.5;;;4.3;;
6561;SDS011;3314;50.890;4.722;2023-06-10T08:23:31;12.2;;;4.9;;
6561;SDS011;3314;50.890;4.722;2023-06-10T08:25:31;13.5;;;5.3;;
6561;SDS011;3314;50.890;4.722;2023-06-10T08:27:30;15.8;;;5.8;;
6561;SDS011;3314;50.890;4.722;2023-06-10T08:29:31;13.4;;;4.8;;
6561;SDS011;3314;50.890;4.722;2023-06-10T08:31:31;16.1;;;4.8;;
6561;SDS011;3314;50.890;4.722;2023-06-10T08:33:31;12.8;;;4.4;;
6561;SDS011;3314;50.890;4.722;2023-06-10T08:35:30;12.0;;;4.5;;
6561;SDS011;3314;50.890;4.722;2023-06-10T08:37:30;17.3;;;4.4;;
6561;SDS011;3314;50.890;4.722;2023-06-10T08:39:32;15.1;;;4.6;;
6561;SDS011;3314;50.890;4.722;2023-06-10T08:41:34;12.1;;;4.8;;
6561;SDS011;3314;50.890;4.722;2023-06-10T08:43:36;12.3;;;4.4;;
6561;SDS011;3314;50.890;4.722;2023-06-10T08:45:36;10.5;;;4.0;;
6561;SDS011;3314;50.890;4.722;2023-06-10T08:47:36;11.9;;;4.3;;
6561;SDS011;3314;50.890;4.722;2023-06-10T08:49:38;12.3;;;4.2;;
6561;SDS011;3314;50.890;4.722;2023-06-10T08:51:30;11.8;;;4.2;;
6561;SDS011;3314;50.890;4.722;2023-06-10T08:53:30;11.9;;;4.5;;
6561;SDS011;3314;50.890;4.722;2023-06-10T08:55:32;13.9;;;4.7;;
6561;SDS011;3314;50.890;4.722;2023-06-10T08:57:32;11.0;;;4.3;;
6561;SDS011;3314;50.890;4.722;2023-06-10T08:59:31;11.4;;;4.2;;
6561;SDS011;3314;50.890;4.722;2023-06-10T09:01:31;11.8;;;3.8;;
6561;SDS011;3314;50.890;4.722;2023-06-10T09:03:31;12.2;;;4.4;;
6561;SDS011;3314;50.890;4.722;2023-06-10T09:05:33;12.1;;;4.9;;
6561;SDS011;3314;50.890;4.722;2023-06-10T09:07:35;12.1;;;4.3;;
6561;SDS011;3314;50.890;4.722;2023-06-10T09:09:34;10.9;;;3.9;;
6561;SDS011;3314;50.890;4.722;2023-06-10T09:11:34;11.9;;;4.4;;
6561;SDS011;3314;50.890;4.722;2023-06-10T09:13:34;11.5;;;4.4;;
6561;SDS011;3314;50.890;4.722;2023-06-10T09:15:34;12.2;;;4.5;;
6561;SDS011;3314;50.890;4.722;2023-06-10T09:17:35;12.5;;;4.4;;
6561;SDS011;3314;50.890;4.722;2023-06-10T09:19:35;10.9;;;4.6;;
6561;SDS011;3314;50.890;4.722;2023-06-10T09:21:36;11.3;;;4.8;;
6561;SDS011;3314;50.890;4.722;2023-06-10T09:23:35;11.3;;;4.8;;
6561;SDS011;3314;50.890;4.722;2023-06-10T09:25:37;12.2;;;4.7;;
6561;SDS011;3314;50.890;4.722;2023-06-10T09:27:44;11.9;;;4.8;;
6561;SDS011;3314;50.890;4.722;2023-06-10T09:29:31;13.4;;;4.1;;
6561;SDS011;3314;50.890;4.722;2023-06-10T09:31:31;13.9;;;4.8;;
6561;SDS011;3314;50.890;4.722;2023-06-10T09:33:31;16.5;;;5.2;;
6561;SDS011;3314;50.890;4.722;2023-06-10T09:35:31;13.3;;;4.7;;
6561;SDS011;3314;50.890;4.722;2023-06-10T09:37:30;11.1;;;4.8;;
6561;SDS011;3314;50.890;4.722;2023-06-10T09:39:30;13.5;;;4.7;;
6561;SDS011;3314;50.890;4.722;2023-06-10T09:41:32;11.9;;;5.1;;
6561;SDS011;3314;50.890;4.722;2023-06-10T09:43:39;14.6;;;4.7;;
6561;SDS011;3314;50.890;4.722;2023-06-10T09:45:39;11.7;;;4.8;;
6561;SDS011;3314;50.890;4.722;2023-06-10T09:47:38;12.0;;;4.4;;
6561;SDS011;3314;50.890;4.722;2023-06-10T09:49:38;13.1;;;4.7;;
6561;SDS011;3314;50.890;4.722;2023-06-10T09:51:38;11.6;;;4.7;;
6561;SDS011;3314;50.890;4.722;2023-06-10T09:53:36;20.1;;;5.3;;
6561;SDS011;3314;50.890;4.722;2023-06-10T09:55:37;12.6;;;5.4;;
6561;SDS011;3314;50.890;4.722;2023-06-10T09:57:37;12.7;;;4.9;;
6561;SDS011;3314;50.890;4.722;2023-06-10T09:59:37;14.0;;;4.8;;
6561;SDS011;3314;50.890;4.722;2023-06-10T10:01:37;14.1;;;5.2;;
6561;SDS011;3314;50.890;4.722;2023-06-10T10:03:44;12.2;;;4.5;;
6561;SDS011;3314;50.890;4.722;2023-06-10T10:05:32;12.4;;;4.7;;
6561;SDS011;3314;50.890;4.722;2023-06-10T10:07:32;11.6;;;5.1;;
6561;SDS011;3314;50.890;4.722;2023-06-10T10:09:31;11.3;;;4.6;;
6561;SDS011;3314;50.890;4.722;2023-06-10T10:11:31;12.7;;;4.9;;
6561;SDS011;3314;50.890;4.722;2023-06-10T10:13:32;13.5;;;5.1;;
6561;SDS011;3314;50.890;4.722;2023-06-10T10:15:32;13.1;;;5.1;;
6561;SDS011;3314;50.890;4.722;2023-06-10T10:17:33;13.5;;;4.3;;
6561;SDS011;3314;50.890;4.722;2023-06-10T10:19:34;14.3;;;4.7;;
6561;SDS011;3314;50.890;4.722;2023-06-10T10:21:38;14.1;;;5.2;;
6561;SDS011;3314;50.890;4.722;2023-06-10T10:23:40;15.6;;;5.5;;
6561;SDS011;3314;50.890;4.722;2023-06-10T10:25:41;14.2;;;5.3;;
6561;SDS011;3314;50.890;4.722;2023-06-10T10:27:42;13.1;;;5.4;;
6561;SDS011;3314;50.890;4.722;2023-06-10T10:29:33;16.5;;;5.4;;
6561;SDS011;3314;50.890;4.722;2023-06-10T10:31:35;19.5;;;5.5;;
6561;SDS011;3314;50.890;4.722;2023-06-10T10:33:39;11.4;;;4.8;;
6561;SDS011;3314;50.890;4.722;2023-06-10T10:35:39;12.7;;;5.1;;
6561;SDS011;3314;50.890;4.722;2023-06-10T10:37:39;13.3;;;4.6;;
6561;SDS011;3314;50.890;4.722;2023-06-10T10:39:39;12.4;;;5.1;;
6561;SDS011;3314;50.890;4.722;2023-06-10T10:41:39;14.1;;;5.0;;
6561;SDS011;3314;50.890;4.722;2023-06-10T10:43:39;11.9;;;5.0;;
6561;SDS011;3314;50.890;4.722;2023-06-10T10:45:39;16.8;;;4.9;;
6561;SDS011;3314;50.890;4.722;2023-06-10T10:47:39;11.5;;;4.7;;
6561;SDS011;3314;50.890;4.722;2023-06-10T10:49:40;12.2;;;5.0;;
6561;SDS011;3314;50.890;4.722;2023-06-10T10:52:01;14.1;;;5.8;;
6561;SDS011;3314;50.890;4.722;2023-06-10T10:53:37;14.2;;;5.1;;
6561;SDS011;3314;50.890;4.722;2023-06-10T10:55:37;13.2;;;4.6;;
6561;SDS011;3314;50.890;4.722;2023-06-10T10:57:37;11.2;;;4.8;;
6561;SDS011;3314;50.890;4.722;2023-06-10T10:59:54;11.7;;;5.3;;
6561;SDS011;3314;50.890;4.722;2023-06-10T11:01:42;14.9;;;4.6;;
6561;SDS011;3314;50.890;4.722;2023-06-10T11:03:43;15.8;;;5.1;;
6561;SDS011;3314;50.890;4.722;2023-06-10T11:05:45;12.0;;;4.7;;
6561;SDS011;3314;50.890;4.722;2023-06-10T11:07:34;13.2;;;4.9;;
6561;SDS011;3314;50.890;4.722;2023-06-10T11:09:34;12.5;;;4.5;;
6561;SDS011;3314;50.890;4.722;2023-06-10T11:11:34;14.3;;;5.1;;
6561;SDS011;3314;50.890;4.722;2023-06-10T11:13:39;12.9;;;4.9;;
6561;SDS011;3314;50.890;4.722;2023-06-10T11:15:39;12.6;;;4.6;;
6561;SDS011;3314;50.890;4.722;2023-06-10T11:18:06;11.0;;;4.5;;
6561;SDS011;3314;50.890;4.722;2023-06-10T11:19:47;13.9;;;5.0;;
6561;SDS011;3314;50.890;4.722;2023-06-10T11:21:57;11.5;;;5.0;;
6561;SDS011;3314;50.890;4.722;2023-06-10T11:23:38;15.8;;;5.6;;
6561;SDS011;3314;50.890;4.722;2023-06-10T11:25:38;23.9;;;6.8;;
6561;SDS011;3314;50.890;4.722;2023-06-10T11:27:39;17.7;;;6.0;;
6561;SDS011;3314;50.890;4.722;2023-06-10T11:29:38;11.9;;;4.9;;
6561;SDS011;3314;50.890;4.722;2023-06-10T11:31:39;12.5;;;4.9;;
6561;SDS011;3314;50.890;4.722;2023-06-10T11:33:39;10.4;;;4.5;;
6561;SDS011;3314;50.890;4.722;2023-06-10T11:35:39;11.3;;;4.7;;
6561;SDS011;3314;50.890;4.722;2023-06-10T11:37:39;14.5;;;4.5;;
6561;SDS011;3314;50.890;4.722;2023-06-10T11:39:38;14.5;;;4.7;;
6561;SDS011;3314;50.890;4.722;2023-06-10T11:41:38;12.0;;;4.2;;
6561;SDS011;3314;50.890;4.722;2023-06-10T11:43:40;12.6;;;4.4;;
6561;SDS011;3314;50.890;4.722;2023-06-10T11:45:41;11.7;;;4.6;;
6561;SDS011;3314;50.890;4.722;2023-06-10T11:47:42;15.3;;;4.6;;
6561;SDS011;3314;50.890;4.722;2023-06-10T11:49:42;15.3;;;4.8;;
6561;SDS011;3314;50.890;4.722;2023-06-10T11:51:49;13.3;;;4.9;;
6561;SDS011;3314;50.890;4.722;2023-06-10T11:53:37;10.9;;;4.6;;
6561;SDS011;3314;50.890;4.722;2023-06-10T11:55:40;11.5;;;4.7;;
6561;SDS011;3314;50.890;4.722;2023-06-10T11:57:40;12.8;;;4.8;;
6561;SDS011;3314;50.890;4.722;2023-06-10T11:59:41;13.6;;;5.2;;
6561;SDS011;3314;50.890;4.722;2023-06-10T12:01:42;19.0;;;4.6;;
6561;SDS011;3314;50.890;4.722;2023-06-10T12:03:42;13.8;;;4.3;;
6561;SDS011;3314;50.890;4.722;2023-06-10T12:05:53;12.5;;;4.2;;
6561;SDS011;3314;50.890;4.722;2023-06-10T12:07:41;12.2;;;4.1;;
6561;SDS011;3314;50.890;4.722;2023-06-10T12:09:40;11.2;;;3.9;;
6561;SDS011;3314;50.890;4.722;2023-06-10T12:11:40;11.7;;;4.2;;
6561;SDS011;3314;50.890;4.722;2023-06-10T12:13:45;12.6;;;4.1;;
6561;SDS011;3314;50.890;4.722;2023-06-10T12:15:45;11.6;;;4.1;;
6561;SDS011;3314;50.890;4.722;2023-06-10T12:17:46;10.7;;;4.0;;
6561;SDS011;3314;50.890;4.722;2023-06-10T12:19:46;13.1;;;4.5;;
6561;SDS011;3314;50.890;4.722;2023-06-10T12:21:46;13.1;;;4.2;;
6561;SDS011;3314;50.890;4.722;2023-06-10T12:24:01;17.8;;;4.4;;
6561;SDS011;3314;50.890;4.722;2023-06-10T12:25:38;10.4;;;3.8;;
6561;SDS011;3314;50.890;4.722;2023-06-10T12:27:39;14.3;;;4.3;;
6561;SDS011;3314;50.890;4.722;2023-06-10T12:29:39;10.0;;;3.7;;
6561;SDS011;3314;50.890;4.722;2023-06-10T12:31:51;11.4;;;4.0;;
6561;SDS011;3314;50.890;4.722;2023-06-10T12:33:40;22.3;;;4.5;;
6561;SDS011;3314;50.890;4.722;2023-06-10T12:35:41;12.4;;;3.9;;
6561;SDS011;3314;50.890;4.722;2023-06-10T12:37:54;11.2;;;4.1;;
6561;SDS011;3314;50.890;4.722;2023-06-10T12:39:42;11.9;;;4.3;;
6561;SDS011;3314;50.890;4.722;2023-06-10T12:41:39;11.6;;;3.4;;
6561;SDS011;3314;50.890;4.722;2023-06-10T12:43:39;14.3;;;4.2;;
6561;SDS011;3314;50.890;4.722;2023-06-10T12:45:41;12.2;;;3.8;;
6561;SDS011;3314;50.890;4.722;2023-06-10T12:47:42;11.8;;;4.0;;